sensor_id;sensor_type;location;lat;lon;timestamp;P1;durP1;ratioP1;P2;durP2;ratioP2
42886;SDS011;29032;56.028;92.904;2023-10-08T00:03:59;25.37;;;15.13;;
42886;SDS011;29032;56.028;92.904;2023-10-08T00:09:03;28.03;;;16.47;;
42886;SDS011;29032;56.028;92.904;2023-10-08T00:14:06;31.63;;;17.17;;
42886;SDS011;29032;56.028;92.904;2023-10-08T00:19:08;29.57;;;16.90;;
42886;SDS011;29032;56.028;92.904;2023-10-08T00:24:12;37.23;;;18.50;;
42886;SDS011;29032;56.028;92.904;2023-10-08T00:29:14;28.90;;;17.03;;
42886;SDS011;29032;56.028;92.904;2023-10-08T00:34:16;24.30;;;15.10;;
42886;SDS011;29032;56.028;92.904;2023-10-08T00:39:20;25.73;;;14.13;;
42886;SDS011;29032;56.028;92.904;2023-10-08T00:44:22;23.83;;;14.10;;
42886;SDS011;29032;56.028;92.904;2023-10-08T00:49:24;22.07;;;13.53;;
42886;SDS011;29032;56.028;92.904;2023-10-08T00:54:29;20.13;;;11.83;;
42886;SDS011;29032;56.028;92.904;2023-10-08T00:59:32;16.87;;;11.43;;
42886;SDS011;29032;56.028;92.904;2023-10-08T01:04:37;18.27;;;11.37;;
42886;SDS011;29032;56.028;92.904;2023-10-08T01:09:41;16.30;;;9.33;;
42886;SDS011;29032;56.028;92.904;2023-10-08T01:14:43;16.03;;;8.90;;
42886;SDS011;29032;56.028;92.904;2023-10-08T01:19:46;12.93;;;8.27;;
42886;SDS011;29032;56.028;92.904;2023-10-08T01:24:49;11.43;;;7.37;;
42886;SDS011;29032;56.028;92.904;2023-10-08T01:29:52;11.03;;;7.73;;
42886;SDS011;29032;56.028;92.904;2023-10-08T01:34:54;10.23;;;6.87;;
42886;SDS011;29032;56.028;92.904;2023-10-08T01:39:57;9.90;;;6.10;;
42886;SDS011;29032;56.028;92.904;2023-10-08T01:44:59;9.10;;;6.60;;
42886;SDS011;29032;56.028;92.904;2023-10-08T01:50:01;7.63;;;5.70;;
42886;SDS011;29032;56.028;92.904;2023-10-08T01:55:06;7.17;;;5.73;;
42886;SDS011;29032;56.028;92.904;2023-10-08T02:00:09;7.90;;;6.00;;
42886;SDS011;29032;56.028;92.904;2023-10-08T02:05:13;6.93;;;5.50;;
42886;SDS011;29032;56.028;92.904;2023-10-08T02:10:16;8.60;;;6.70;;
42886;SDS011;29032;56.028;92.904;2023-10-08T02:15:19;9.13;;;5.87;;
42886;SDS011;29032;56.028;92.904;2023-10-08T02:20:21;6.30;;;4.70;;
42886;SDS011;29032;56.028;92.904;2023-10-08T02:25:24;6.93;;;5.70;;
42886;SDS011;29032;56.028;92.904;2023-10-08T02:30:26;8.17;;;5.07;;
42886;SDS011;29032;56.028;92.904;2023-10-08T02:35:28;8.53;;;5.57;;
42886;SDS011;29032;56.028;92.904;2023-10-08T02:40:32;8.87;;;5.23;;
42886;SDS011;29032;56.028;92.904;2023-10-08T02:45:34;8.13;;;5.60;;
42886;SDS011;29032;56.028;92.904;2023-10-08T02:50:36;7.50;;;5.60;;
42886;SDS011;29032;56.028;92.904;2023-10-08T02:55:40;8.77;;;5.67;;
42886;SDS011;29032;56.028;92.904;2023-10-08T03:00:42;6.10;;;4.87;;
42886;SDS011;29032;56.028;92.904;2023-10-08T03:05:46;7.87;;;5.33;;
42886;SDS011;29032;56.028;92.904;2023-10-08T03:10:51;6.47;;;5.00;;
42886;SDS011;29032;56.028;92.904;2023-10-08T03:15:54;8.10;;;5.23;;
42886;SDS011;29032;56.028;92.904;2023-10-08T03:20:56;6.63;;;5.40;;
42886;SDS011;29032;56.028;92.904;2023-10-08T03:26:00;6.37;;;5.30;;
42886;SDS011;29032;56.028;92.904;2023-10-08T03:31:03;10.43;;;5.07;;
42886;SDS011;29032;56.028;92.904;2023-10-08T03:36:06;10.70;;;7.90;;
42886;SDS011;29032;56.028;92.904;2023-10-08T03:41:10;7.67;;;5.80;;
42886;SDS011;29032;56.028;92.904;2023-10-08T03:46:12;7.37;;;5.83;;
42886;SDS011;29032;56.028;92.904;2023-10-08T03:51:14;7.07;;;5.80;;
42886;SDS011;29032;56.028;92.904;2023-10-08T03:56:18;7.37;;;4.90;;
42886;SDS011;29032;56.028;92.904;2023-10-08T04:01:20;6.87;;;5.27;;
42886;SDS011;29032;56.028;92.904;2023-10-08T04:06:23;7.77;;;4.80;;
42886;SDS011;29032;56.028;92.904;2023-10-08T04:11:27;10.27;;;5.67;;
42886;SDS011;29032;56.028;92.904;2023-10-08T04:16:29;7.60;;;5.67;;
42886;SDS011;29032;56.028;92.904;2023-10-08T04:21:33;6.53;;;5.70;;
42886;SDS011;29032;56.028;92.904;2023-10-08T04:26:36;8.47;;;4.60;;
42886;SDS011;29032;56.028;92.904;2023-10-08T04:31:38;7.53;;;5.27;;
42886;SDS011;29032;56.028;92.904;2023-10-08T04:36:40;7.37;;;5.13;;
42886;SDS011;29032;56.028;92.904;2023-10-08T04:41:44;9.17;;;6.13;;
42886;SDS011;29032;56.028;92.904;2023-10-08T04:46:46;8.80;;;6.00;;
42886;SDS011;29032;56.028;92.904;2023-10-08T04:51:49;11.07;;;6.23;;
42886;SDS011;29032;56.028;92.904;2023-10-08T04:56:52;6.97;;;5.20;;
42886;SDS011;29032;56.028;92.904;2023-10-08T05:01:54;11.60;;;6.40;;
42886;SDS011;29032;56.028;92.904;2023-10-08T05:06:56;9.60;;;6.00;;
42886;SDS011;29032;56.028;92.904;2023-10-08T05:11:59;9.50;;;5.80;;
42886;SDS011;29032;56.028;92.904;2023-10-08T05:17:02;9.10;;;6.00;;
42886;SDS011;29032;56.028;92.904;2023-10-08T05:22:07;10.17;;;6.67;;
42886;SDS011;29032;56.028;92.904;2023-10-08T05:27:11;11.67;;;7.07;;
42886;SDS011;29032;56.028;92.904;2023-10-08T05:32:12;8.97;;;6.93;;
42886;SDS011;29032;56.028;92.904;2023-10-08T05:37:14;9.50;;;7.07;;
42886;SDS011;29032;56.028;92.904;2023-10-08T05:42:18;13.47;;;7.00;;
42886;SDS011;29032;56.028;92.904;2023-10-08T05:47:20;10.17;;;7.73;;
42886;SDS011;29032;56.028;92.904;2023-10-08T05:52:22;11.77;;;8.27;;
42886;SDS011;29032;56.028;92.904;2023-10-08T05:57:26;13.73;;;8.30;;
42886;SDS011;29032;56.028;92.904;2023-10-08T06:02:28;15.40;;;8.87;;
42886;SDS011;29032;56.028;92.904;2023-10-08T06:07:31;16.57;;;8.53;;
42886;SDS011;29032;56.028;92.904;2023-10-08T06:12:35;14.37;;;10.00;;
42886;SDS011;29032;56.028;92.904;2023-10-08T06:17:37;16.33;;;10.00;;
42886;SDS011;29032;56.028;92.904;2023-10-08T06:22:39;15.33;;;9.60;;
42886;SDS011;29032;56.028;92.904;2023-10-08T06:27:42;14.17;;;9.17;;
42886;SDS011;29032;56.028;92.904;2023-10-08T06:32:44;17.17;;;9.13;;
42886;SDS011;29032;56.028;92.904;2023-10-08T06:37:46;16.87;;;9.10;;
42886;SDS011;29032;56.028;92.904;2023-10-08T06:42:50;14.27;;;9.67;;
42886;SDS011;29032;56.028;92.904;2023-10-08T06:47:52;14.43;;;9.77;;
42886;SDS011;29032;56.028;92.904;2023-10-08T06:52:54;17.77;;;11.00;;
42886;SDS011;29032;56.028;92.904;2023-10-08T06:57:58;14.57;;;10.20;;
42886;SDS011;29032;56.028;92.904;2023-10-08T07:03:00;16.03;;;10.83;;
42886;SDS011;29032;56.028;92.904;2023-10-08T07:08:02;14.77;;;9.97;;
42886;SDS011;29032;56.028;92.904;2023-10-08T07:13:06;19.00;;;10.73;;
42886;SDS011;29032;56.028;92.904;2023-10-08T07:18:08;14.53;;;9.37;;
42886;SDS011;29032;56.028;92.904;2023-10-08T07:23:10;17.17;;;10.33;;
42886;SDS011;29032;56.028;92.904;2023-10-08T07:28:14;15.43;;;9.87;;
42886;SDS011;29032;56.028;92.904;2023-10-08T07:33:16;13.90;;;9.90;;
42886;SDS011;29032;56.028;92.904;2023-10-08T07:38:18;12.60;;;7.93;;
42886;SDS011;29032;56.028;92.904;2023-10-08T07:43:21;13.63;;;9.30;;
42886;SDS011;29032;56.028;92.904;2023-10-08T07:48:23;13.83;;;8.90;;
42886;SDS011;29032;56.028;92.904;2023-10-08T07:53:25;14.13;;;9.77;;
42886;SDS011;29032;56.028;92.904;2023-10-08T07:58:29;15.27;;;10.50;;
42886;SDS011;29032;56.028;92.904;2023-10-08T08:03:31;12.33;;;8.40;;
42886;SDS011;29032;56.028;92.904;2023-10-08T08:08:33;15.23;;;9.63;;
42886;SDS011;29032;56.028;92.904;2023-10-08T08:13:38;15.03;;;8.40;;
42886;SDS011;29032;56.028;92.904;2023-10-08T08:18:41;15.13;;;8.80;;
42886;SDS011;29032;56.028;92.904;2023-10-08T08:23:43;14.00;;;7.73;;
42886;SDS011;29032;56.028;92.904;2023-10-08T08:28:47;12.37;;;7.13;;
42886;SDS011;29032;56.028;92.904;2023-10-08T08:33:49;9.95;;;6.78;;
42886;SDS011;29032;56.028;92.904;2023-10-08T08:38:51;10.23;;;7.00;;
42886;SDS011;29032;56.028;92.904;2023-10-08T08:43:55;11.43;;;6.95;;
42886;SDS011;29032;56.028;92.904;2023-10-08T08:48:57;13.80;;;7.27;;
42886;SDS011;29032;56.028;92.904;2023-10-08T08:54:03;11.73;;;5.82;;
42886;SDS011;29032;56.028;92.904;2023-10-08T08:59:07;9.43;;;5.73;;
42886;SDS011;29032;56.028;92.904;2023-10-08T09:04:09;10.10;;;6.03;;
42886;SDS011;29032;56.028;92.904;2023-10-08T09:09:11;11.13;;;6.47;;
42886;SDS011;29032;56.028;92.904;2023-10-08T09:14:15;7.97;;;5.67;;
42886;SDS011;29032;56.028;92.904;2023-10-08T09:19:17;12.27;;;6.30;;
42886;SDS011;29032;56.028;92.904;2023-10-08T09:24:19;11.57;;;8.17;;
42886;SDS011;29032;56.028;92.904;2023-10-08T09:29:26;7.97;;;6.10;;
42886;SDS011;29032;56.028;92.904;2023-10-08T09:34:28;11.23;;;5.63;;
42886;SDS011;29032;56.028;92.904;2023-10-08T09:39:31;7.77;;;5.83;;
42886;SDS011;29032;56.028;92.904;2023-10-08T09:44:35;10.50;;;5.40;;
42886;SDS011;29032;56.028;92.904;2023-10-08T09:49:39;10.57;;;5.70;;
42886;SDS011;29032;56.028;92.904;2023-10-08T09:54:43;10.37;;;6.17;;
42886;SDS011;29032;56.028;92.904;2023-10-08T09:59:47;8.20;;;5.60;;
42886;SDS011;29032;56.028;92.904;2023-10-08T10:04:50;10.20;;;6.03;;
42886;SDS011;29032;56.028;92.904;2023-10-08T10:09:52;10.13;;;5.93;;
42886;SDS011;29032;56.028;92.904;2023-10-08T10:14:57;9.83;;;5.43;;
42886;SDS011;29032;56.028;92.904;2023-10-08T10:20:00;13.10;;;6.03;;
42886;SDS011;29032;56.028;92.904;2023-10-08T10:25:03;10.37;;;6.37;;
42886;SDS011;29032;56.028;92.904;2023-10-08T10:30:08;11.00;;;6.20;;
42886;SDS011;29032;56.028;92.904;2023-10-08T10:35:14;9.73;;;6.27;;
42886;SDS011;29032;56.028;92.904;2023-10-08T10:40:19;12.30;;;6.90;;
42886;SDS011;29032;56.028;92.904;2023-10-08T10:45:23;11.83;;;6.70;;
42886;SDS011;29032;56.028;92.904;2023-10-08T10:50:26;7.90;;;5.80;;
42886;SDS011;29032;56.028;92.904;2023-10-08T10:55:28;12.13;;;6.93;;
42886;SDS011;29032;56.028;92.904;2023-10-08T11:00:32;14.90;;;6.97;;
42886;SDS011;29032;56.028;92.904;2023-10-08T11:05:34;12.33;;;6.30;;
42886;SDS011;29032;56.028;92.904;2023-10-08T11:10:37;11.73;;;6.10;;
42886;SDS011;29032;56.028;92.904;2023-10-08T11:15:41;10.20;;;5.93;;
42886;SDS011;29032;56.028;92.904;2023-10-08T11:20:44;8.97;;;6.10;;
42886;SDS011;29032;56.028;92.904;2023-10-08T11:25:52;9.20;;;5.67;;
42886;SDS011;29032;56.028;92.904;2023-10-08T11:30:57;12.97;;;5.97;;
42886;SDS011;29032;56.028;92.904;2023-10-08T11:36:00;9.37;;;5.67;;
42886;SDS011;29032;56.028;92.904;2023-10-08T11:41:09;9.07;;;5.63;;
42886;SDS011;29032;56.028;92.904;2023-10-08T11:46:13;8.63;;;5.87;;
42886;SDS011;29032;56.028;92.904;2023-10-08T11:51:16;9.17;;;6.03;;
42886;SDS011;29032;56.028;92.904;2023-10-08T11:56:18;12.50;;;7.07;;
42886;SDS011;29032;56.028;92.904;2023-10-08T12:01:21;23.23;;;8.30;;
42886;SDS011;29032;56.028;92.904;2023-10-08T12:06:25;16.77;;;7.53;;
42886;SDS011;29032;56.028;92.904;2023-10-08T12:11:27;13.30;;;8.13;;
42886;SDS011;29032;56.028;92.904;2023-10-08T12:16:31;22.63;;;10.63;;
42886;SDS011;29032;56.028;92.904;2023-10-08T12:21:33;23.70;;;13.43;;
42886;SDS011;29032;56.028;92.904;2023-10-08T12:26:35;27.80;;;18.73;;
42886;SDS011;29032;56.028;92.904;2023-10-08T12:31:39;26.90;;;17.97;;
42886;SDS011;29032;56.028;92.904;2023-10-08T12:36:41;39.20;;;22.83;;
42886;SDS011;29032;56.028;92.904;2023-10-08T12:41:43;40.83;;;26.43;;
42886;SDS011;29032;56.028;92.904;2023-10-08T12:46:47;52.87;;;33.50;;
42886;SDS011;29032;56.028;92.904;2023-10-08T12:51:49;63.53;;;37.03;;
42886;SDS011;29032;56.028;92.904;2023-10-08T12:56:51;69.33;;;44.27;;
42886;SDS011;29032;56.028;92.904;2023-10-08T13:01:55;62.20;;;36.80;;
42886;SDS011;29032;56.028;92.904;2023-10-08T13:06:57;47.13;;;29.10;;
42886;SDS011;29032;56.028;92.904;2023-10-08T13:12:00;40.63;;;25.43;;
42886;SDS011;29032;56.028;92.904;2023-10-08T13:17:03;37.90;;;24.03;;
42886;SDS011;29032;56.028;92.904;2023-10-08T13:22:05;31.60;;;19.80;;
42886;SDS011;29032;56.028;92.904;2023-10-08T13:27:07;26.20;;;16.87;;
42886;SDS011;29032;56.028;92.904;2023-10-08T13:32:11;27.93;;;18.53;;
42886;SDS011;29032;56.028;92.904;2023-10-08T13:37:13;21.30;;;14.37;;
42886;SDS011;29032;56.028;92.904;2023-10-08T13:42:15;20.70;;;14.10;;
42886;SDS011;29032;56.028;92.904;2023-10-08T13:47:19;20.17;;;13.30;;
42886;SDS011;29032;56.028;92.904;2023-10-08T13:52:21;16.37;;;11.47;;
42886;SDS011;29032;56.028;92.904;2023-10-08T13:57:23;21.90;;;12.97;;
42886;SDS011;29032;56.028;92.904;2023-10-08T14:02:27;20.50;;;13.70;;
42886;SDS011;29032;56.028;92.904;2023-10-08T14:07:29;22.23;;;11.80;;
42886;SDS011;29032;56.028;92.904;2023-10-08T14:12:31;14.00;;;10.60;;
42886;SDS011;29032;56.028;92.904;2023-10-08T14:17:34;17.53;;;9.97;;
42886;SDS011;29032;56.028;92.904;2023-10-08T14:22:36;13.83;;;9.30;;
42886;SDS011;29032;56.028;92.904;2023-10-08T14:27:38;16.30;;;10.30;;
42886;SDS011;29032;56.028;92.904;2023-10-08T14:32:42;19.63;;;10.80;;
42886;SDS011;29032;56.028;92.904;2023-10-08T14:37:44;14.40;;;10.40;;
42886;SDS011;29032;56.028;92.904;2023-10-08T14:42:46;18.70;;;11.60;;
42886;SDS011;29032;56.028;92.904;2023-10-08T14:47:50;17.33;;;11.10;;
42886;SDS011;29032;56.028;92.904;2023-10-08T14:52:53;18.27;;;11.80;;
42886;SDS011;29032;56.028;92.904;2023-10-08T14:57:55;15.20;;;10.77;;
42886;SDS011;29032;56.028;92.904;2023-10-08T15:02:59;14.10;;;9.50;;
42886;SDS011;29032;56.028;92.904;2023-10-08T15:08:01;15.43;;;9.03;;
42886;SDS011;29032;56.028;92.904;2023-10-08T15:13:03;14.47;;;8.53;;
42886;SDS011;29032;56.028;92.904;2023-10-08T15:18:07;12.97;;;9.03;;
42886;SDS011;29032;56.028;92.904;2023-10-08T15:23:09;14.03;;;8.90;;
42886;SDS011;29032;56.028;92.904;2023-10-08T15:28:11;15.50;;;9.70;;
42886;SDS011;29032;56.028;92.904;2023-10-08T15:33:15;14.33;;;9.53;;
42886;SDS011;29032;56.028;92.904;2023-10-08T15:38:17;14.20;;;9.57;;
42886;SDS011;29032;56.028;92.904;2023-10-08T15:43:19;16.10;;;10.10;;
42886;SDS011;29032;56.028;92.904;2023-10-08T15:48:23;13.83;;;9.50;;
42886;SDS011;29032;56.028;92.904;2023-10-08T15:53:25;13.47;;;9.53;;
42886;SDS011;29032;56.028;92.904;2023-10-08T15:58:27;12.77;;;9.97;;
42886;SDS011;29032;56.028;92.904;2023-10-08T16:03:30;12.80;;;9.47;;
42886;SDS011;29032;56.028;92.904;2023-10-08T16:08:32;17.33;;;10.17;;
42886;SDS011;29032;56.028;92.904;2023-10-08T16:13:34;14.10;;;9.13;;
42886;SDS011;29032;56.028;92.904;2023-10-08T16:18:38;13.10;;;8.90;;
42886;SDS011;29032;56.028;92.904;2023-10-08T16:23:40;14.37;;;8.80;;
42886;SDS011;29032;56.028;92.904;2023-10-08T16:28:42;12.07;;;8.40;;
42886;SDS011;29032;56.028;92.904;2023-10-08T16:33:46;11.57;;;8.77;;
42886;SDS011;29032;56.028;92.904;2023-10-08T16:38:48;11.70;;;8.63;;
42886;SDS011;29032;56.028;92.904;2023-10-08T16:43:50;14.13;;;9.00;;
42886;SDS011;29032;56.028;92.904;2023-10-08T16:48:53;10.90;;;7.93;;
42886;SDS011;29032;56.028;92.904;2023-10-08T16:53:55;11.97;;;8.30;;
42886;SDS011;29032;56.028;92.904;2023-10-08T16:58:57;13.57;;;8.60;;
42886;SDS011;29032;56.028;92.904;2023-10-08T17:04:01;12.03;;;8.63;;
42886;SDS011;29032;56.028;92.904;2023-10-08T17:09:03;13.80;;;8.53;;
42886;SDS011;29032;56.028;92.904;2023-10-08T17:14:05;13.20;;;9.37;;
42886;SDS011;29032;56.028;92.904;2023-10-08T17:19:09;14.30;;;9.80;;
42886;SDS011;29032;56.028;92.904;2023-10-08T17:24:11;16.53;;;9.23;;
42886;SDS011;29032;56.028;92.904;2023-10-08T17:29:13;13.63;;;8.97;;
42886;SDS011;29032;56.028;92.904;2023-10-08T17:34:17;14.73;;;9.07;;
42886;SDS011;29032;56.028;92.904;2023-10-08T17:39:19;16.97;;;9.43;;
42886;SDS011;29032;56.028;92.904;2023-10-08T17:44:21;14.00;;;8.60;;
42886;SDS011;29032;56.028;92.904;2023-10-08T17:49:25;15.93;;;10.13;;
42886;SDS011;29032;56.028;92.904;2023-10-08T17:54:27;16.27;;;10.30;;
42886;SDS011;29032;56.028;92.904;2023-10-08T17:59:29;19.97;;;10.13;;
42886;SDS011;29032;56.028;92.904;2023-10-08T18:04:37;14.32;;;9.57;;
42886;SDS011;29032;56.028;92.904;2023-10-08T18:09:39;15.00;;;10.03;;
42886;SDS011;29032;56.028;92.904;2023-10-08T18:14:41;13.23;;;9.23;;
42886;SDS011;29032;56.028;92.904;2023-10-08T18:19:45;14.80;;;9.90;;
42886;SDS011;29032;56.028;92.904;2023-10-08T18:24:47;17.47;;;10.93;;
42886;SDS011;29032;56.028;92.904;2023-10-08T18:29:49;14.10;;;9.57;;
42886;SDS011;29032;56.028;92.904;2023-10-08T18:34:52;14.07;;;9.90;;
42886;SDS011;29032;56.028;92.904;2023-10-08T18:39:54;14.73;;;9.80;;
42886;SDS011;29032;56.028;92.904;2023-10-08T18:44:57;16.97;;;9.83;;
42886;SDS011;29032;56.028;92.904;2023-10-08T18:50:00;20.53;;;11.07;;
42886;SDS011;29032;56.028;92.904;2023-10-08T18:55:03;17.70;;;11.30;;
42886;SDS011;29032;56.028;92.904;2023-10-08T19:00:06;18.47;;;11.07;;
42886;SDS011;29032;56.028;92.904;2023-10-08T19:05:11;19.37;;;11.50;;
42886;SDS011;29032;56.028;92.904;2023-10-08T19:10:13;17.40;;;10.57;;
42886;SDS011;29032;56.028;92.904;2023-10-08T19:15:15;19.43;;;11.00;;
42886;SDS011;29032;56.028;92.904;2023-10-08T19:20:18;16.60;;;10.60;;
42886;SDS011;29032;56.028;92.904;2023-10-08T19:25:20;20.57;;;11.53;;
42886;SDS011;29032;56.028;92.904;2023-10-08T19:30:23;20.83;;;11.47;;
42886;SDS011;29032;56.028;92.904;2023-10-08T19:35:26;19.07;;;10.77;;
42886;SDS011;29032;56.028;92.904;2023-10-08T19:40:28;18.90;;;10.87;;
42886;SDS011;29032;56.028;92.904;2023-10-08T19:45:34;21.97;;;11.40;;
42886;SDS011;29032;56.028;92.904;2023-10-08T19:50:38;16.43;;;10.27;;
42886;SDS011;29032;56.028;92.904;2023-10-08T19:55:42;15.60;;;10.20;;
42886;SDS011;29032;56.028;92.904;2023-10-08T20:00:46;16.77;;;10.47;;
42886;SDS011;29032;56.028;92.904;2023-10-08T20:05:50;15.93;;;9.70;;
42886;SDS011;29032;56.028;92.904;2023-10-08T20:10:52;11.93;;;9.37;;
42886;SDS011;29032;56.028;92.904;2023-10-08T20:15:54;9.83;;;8.07;;
42886;SDS011;29032;56.028;92.904;2023-10-08T20:20:58;12.27;;;8.00;;
42886;SDS011;29032;56.028;92.904;2023-10-08T20:26:07;14.57;;;8.37;;
42886;SDS011;29032;56.028;92.904;2023-10-08T20:31:11;11.57;;;7.83;;
42886;SDS011;29032;56.028;92.904;2023-10-08T20:36:15;10.17;;;7.73;;
42886;SDS011;29032;56.028;92.904;2023-10-08T20:41:17;11.43;;;7.67;;
42886;SDS011;29032;56.028;92.904;2023-10-08T20:46:20;12.17;;;6.90;;
42886;SDS011;29032;56.028;92.904;2023-10-08T20:51:23;7.83;;;6.10;;
42886;SDS011;29032;56.028;92.904;2023-10-08T20:56:25;9.63;;;6.83;;
42886;SDS011;29032;56.028;92.904;2023-10-08T21:01:29;12.63;;;6.90;;
42886;SDS011;29032;56.028;92.904;2023-10-08T21:06:32;9.20;;;7.03;;
42886;SDS011;29032;56.028;92.904;2023-10-08T21:11:34;14.03;;;6.97;;
42886;SDS011;29032;56.028;92.904;2023-10-08T21:16:36;11.30;;;6.90;;
42886;SDS011;29032;56.028;92.904;2023-10-08T21:21:40;10.37;;;7.10;;
42886;SDS011;29032;56.028;92.904;2023-10-08T21:26:42;10.80;;;7.93;;
42886;SDS011;29032;56.028;92.904;2023-10-08T21:31:44;9.50;;;7.10;;
42886;SDS011;29032;56.028;92.904;2023-10-08T21:36:48;10.67;;;7.90;;
42886;SDS011;29032;56.028;92.904;2023-10-08T21:41:50;12.90;;;8.37;;
42886;SDS011;29032;56.028;92.904;2023-10-08T21:46:52;10.73;;;8.40;;
42886;SDS011;29032;56.028;92.904;2023-10-08T21:51:56;9.80;;;7.20;;
42886;SDS011;29032;56.028;92.904;2023-10-08T21:56:58;9.13;;;7.30;;
42886;SDS011;29032;56.028;92.904;2023-10-08T22:02:00;11.43;;;7.80;;
42886;SDS011;29032;56.028;92.904;2023-10-08T22:07:03;7.90;;;6.27;;
42886;SDS011;29032;56.028;92.904;2023-10-08T22:12:05;9.27;;;6.80;;
42886;SDS011;29032;56.028;92.904;2023-10-08T22:17:07;9.97;;;6.60;;
42886;SDS011;29032;56.028;92.904;2023-10-08T22:22:11;7.57;;;6.20;;
42886;SDS011;29032;56.028;92.904;2023-10-08T22:27:14;7.33;;;6.13;;
42886;SDS011;29032;56.028;92.904;2023-10-08T22:32:16;7.00;;;6.07;;
42886;SDS011;29032;56.028;92.904;2023-10-08T22:37:20;7.87;;;6.50;;
42886;SDS011;29032;56.028;92.904;2023-10-08T22:42:22;6.87;;;5.90;;
42886;SDS011;29032;56.028;92.904;2023-10-08T22:47:24;9.10;;;7.27;;
42886;SDS011;29032;56.028;92.904;2023-10-08T22:52:28;10.90;;;6.40;;
42886;SDS011;29032;56.028;92.904;2023-10-08T22:57:30;8.93;;;6.03;;
42886;SDS011;29032;56.028;92.904;2023-10-08T23:02:32;8.83;;;6.60;;
42886;SDS011;29032;56.028;92.904;2023-10-08T23:07:35;10.27;;;6.90;;
42886;SDS011;29032;56.028;92.904;2023-10-08T23:12:37;13.00;;;7.13;;
42886;SDS011;29032;56.028;92.904;2023-10-08T23:17:39;9.13;;;6.97;;
42886;SDS011;29032;56.028;92.904;2023-10-08T23:22:43;8.20;;;6.57;;
42886;SDS011;29032;56.028;92.904;2023-10-08T23:27:45;8.67;;;6.63;;
42886;SDS011;29032;56.028;92.904;2023-10-08T23:32:48;10.10;;;6.43;;
42886;SDS011;29032;56.028;92.904;2023-10-08T23:37:52;13.63;;;7.90;;
42886;SDS011;29032;56.028;92.904;2023-10-08T23:42:54;10.70;;;7.73;;
42886;SDS011;29032;56.028;92.904;2023-10-08T23:47:56;13.47;;;8.13;;
42886;SDS011;29032;56.028;92.904;2023-10-08T23:53:01;13.23;;;8.73;;
42886;SDS011;29032;56.028;92.904;2023-10-08T23:58:03;13.73;;;8.67;;
